createdAt,value
2022-10-04T00:01:09.035Z,1.40
2022-10-04T00:03:43.871Z,1.50
2022-10-04T00:06:19.480Z,1.30
2022-10-04T00:08:51.830Z,1.70
2022-10-04T00:11:26.065Z,1.20
2022-10-04T00:13:57.475Z,1.10
2022-10-04T00:16:30.503Z,1.10
2022-10-04T00:19:25.375Z,1.40
2022-10-04T00:22:17.460Z,1.00
2022-10-04T00:25:21.073Z,1.10
2022-10-04T00:28:41.149Z,1.30
2022-10-04T00:31:18.242Z,1.20
2022-10-04T00:33:47.520Z,1.30
2022-10-04T00:37:01.497Z,1.10
2022-10-04T00:39:43.192Z,1.30
2022-10-04T00:42:41.479Z,1.10
2022-10-04T00:45:18.909Z,2.10
2022-10-04T00:48:20.618Z,0.70
2022-10-04T00:50:53.867Z,1.00
2022-10-04T00:53:41.222Z,1.00
2022-10-04T00:56:13.475Z,1.40
2022-10-04T00:58:50.569Z,1.30
2022-10-04T01:01:23.492Z,1.60
2022-10-04T01:03:53.680Z,0.90
2022-10-04T01:06:22.408Z,0.90
2022-10-04T01:08:52.505Z,1.30
2022-10-04T01:11:24.641Z,1.30
2022-10-04T01:13:56.705Z,1.50
2022-10-04T01:16:27.559Z,1.20
2022-10-04T01:18:55.705Z,1.20
2022-10-04T01:21:27.870Z,1.40
2022-10-04T01:24:21.134Z,1.60
2022-10-04T01:26:48.915Z,1.10
2022-10-04T01:29:18.528Z,1.50
2022-10-04T01:31:48.576Z,1.40
2022-10-04T01:34:18.413Z,1.60
2022-10-04T01:36:48.084Z,1.20
2022-10-04T01:39:17.669Z,1.30
2022-10-04T01:41:51.337Z,1.10
2022-10-04T01:44:27.231Z,1.20
2022-10-04T01:46:59.556Z,1.20
2022-10-04T01:49:30.734Z,1.40
2022-10-04T01:52:04.641Z,1.70
2022-10-04T01:54:36.304Z,1.10
2022-10-04T01:57:13.818Z,1.70
2022-10-04T01:59:48.919Z,1.10
2022-10-04T02:02:25.276Z,1.50
2022-10-04T02:04:56.278Z,1.10
2022-10-04T02:07:28.720Z,1.10
2022-10-04T02:09:59.228Z,1.30
2022-10-04T02:12:30.763Z,1.40
2022-10-04T02:15:01.588Z,1.70
2022-10-04T02:17:31.821Z,1.30
2022-10-04T02:20:02.248Z,1.60
2022-10-04T02:22:30.638Z,1.40
2022-10-04T02:24:58.980Z,1.20
2022-10-04T02:27:30.550Z,1.20
2022-10-04T02:30:03.280Z,1.20
2022-10-04T02:32:51.035Z,1.30
2022-10-04T02:35:20.343Z,2.40
2022-10-04T02:37:54.112Z,1.50
2022-10-04T02:40:29.622Z,1.20
2022-10-04T02:43:02.760Z,1.50
2022-10-04T02:45:40.509Z,1.10
2022-10-04T02:48:22.045Z,1.10
2022-10-04T02:50:52.967Z,1.30
2022-10-04T02:53:26.339Z,1.60
2022-10-04T02:55:55.589Z,1.40
2022-10-04T02:58:25.849Z,1.40
2022-10-04T03:00:57.573Z,1.30
2022-10-04T03:03:27.883Z,1.30
2022-10-04T03:06:01.838Z,1.30
2022-10-04T03:08:32.597Z,1.60
2022-10-04T03:11:02.371Z,1.30
2022-10-04T03:13:31.695Z,1.20
2022-10-04T03:15:59.513Z,1.30
2022-10-04T03:18:28.348Z,1.50
2022-10-04T03:20:56.420Z,1.30
2022-10-04T03:23:24.347Z,1.30
2022-10-04T03:25:56.824Z,1.10
2022-10-04T03:28:24.495Z,2.00
2022-10-04T03:30:52.282Z,1.50
2022-10-04T03:33:25.907Z,1.50
2022-10-04T03:35:59.871Z,1.40
2022-10-04T03:38:28.983Z,1.30
2022-10-04T03:41:00.027Z,1.40
2022-10-04T03:43:30.841Z,1.20
2022-10-04T03:46:00.240Z,1.30
2022-10-04T03:48:33.124Z,1.70
2022-10-04T03:51:02.318Z,1.20
2022-10-04T03:53:35.925Z,1.40
2022-10-04T03:56:12.082Z,1.40
2022-10-04T03:58:40.194Z,1.30
2022-10-04T04:01:33.955Z,1.40
2022-10-04T04:04:06.841Z,1.30
2022-10-04T04:06:42.576Z,1.40
2022-10-04T04:09:19.874Z,1.30
2022-10-04T04:11:50.719Z,1.50
2022-10-04T04:14:24.208Z,1.60
2022-10-04T04:16:53.957Z,1.30
2022-10-04T04:19:25.045Z,1.70
2022-10-04T04:21:55.247Z,1.50
2022-10-04T04:24:27.868Z,1.40
2022-10-04T04:26:59.603Z,1.70
2022-10-04T04:29:33.427Z,1.40
2022-10-04T04:32:05.382Z,1.40
2022-10-04T04:34:44.800Z,1.70
2022-10-04T04:37:12.370Z,1.70
2022-10-04T04:39:40.533Z,1.30
2022-10-04T04:42:14.974Z,1.60
2022-10-04T04:44:48.929Z,1.70
2022-10-04T04:47:27.080Z,1.70
2022-10-04T04:49:57.194Z,1.50
2022-10-04T04:52:27.489Z,1.50
2022-10-04T04:54:56.319Z,1.60
2022-10-04T04:57:24.792Z,1.60
2022-10-04T04:59:56.930Z,1.70
2022-10-04T05:02:36.593Z,1.60
2022-10-04T05:05:23.430Z,1.50
2022-10-04T05:08:09.220Z,1.60
2022-10-04T05:10:38.799Z,1.10
2022-10-04T05:13:09.608Z,1.50
2022-10-04T05:15:39.464Z,1.50
2022-10-04T05:18:22.711Z,1.20
2022-10-04T05:20:53.576Z,1.50
2022-10-04T05:23:21.371Z,1.50
2022-10-04T05:25:49.592Z,1.70
2022-10-04T05:28:18.068Z,1.60
2022-10-04T05:31:09.776Z,1.50
2022-10-04T05:33:44.703Z,1.40
2022-10-04T05:36:39.478Z,1.40
2022-10-04T05:39:13.667Z,1.20
2022-10-04T05:41:51.291Z,1.80
2022-10-04T05:44:25.469Z,1.60
2022-10-04T05:46:54.422Z,1.20
2022-10-04T05:49:24.904Z,1.50
2022-10-04T05:51:55.738Z,2.00
2022-10-04T05:54:26.123Z,1.70
2022-10-04T05:57:20.402Z,1.90
2022-10-04T06:00:06.047Z,1.60
2022-10-04T06:02:54.202Z,1.60
2022-10-04T06:05:29.209Z,1.60
2022-10-04T06:08:04.815Z,1.40
2022-10-04T06:10:48.597Z,1.40
2022-10-04T06:13:36.132Z,1.30
2022-10-04T06:18:58.902Z,1.60
2022-10-04T06:21:29.195Z,1.00
2022-10-04T06:24:02.305Z,1.40
2022-10-04T06:26:37.768Z,1.70
2022-10-04T06:29:11.536Z,1.70
2022-10-04T06:31:57.364Z,1.50
2022-10-04T06:34:54.397Z,1.60
2022-10-04T06:37:38.518Z,1.60
2022-10-04T06:40:28.047Z,1.90
2022-10-04T06:43:14.360Z,2.50
2022-10-04T06:46:01.120Z,1.30
2022-10-04T06:49:03.326Z,1.70
2022-10-04T06:51:51.337Z,0.90
2022-10-04T06:54:37.573Z,1.20
2022-10-04T06:57:34.811Z,1.70
2022-10-04T07:00:13.083Z,2.20
2022-10-04T07:02:46.437Z,1.80
2022-10-04T07:05:29.627Z,1.50
2022-10-04T07:08:06.437Z,1.40
2022-10-04T07:10:40.341Z,1.60
2022-10-04T07:13:21.888Z,1.40
2022-10-04T07:15:57.776Z,1.80
2022-10-04T07:18:29.603Z,1.60
2022-10-04T07:21:06.568Z,1.70
2022-10-04T07:26:08.131Z,1.20
2022-10-04T07:29:01.540Z,1.30
2022-10-04T07:31:34.067Z,2.50
2022-10-04T07:34:09.047Z,1.50
2022-10-04T07:36:45.896Z,2.00
2022-10-04T07:39:16.831Z,1.30
2022-10-04T07:41:52.384Z,1.20
2022-10-04T07:44:31.899Z,1.10
2022-10-04T07:47:03.475Z,1.00
2022-10-04T07:49:38.995Z,1.30
2022-10-04T07:52:21.242Z,1.10
2022-10-04T07:54:57.720Z,1.00
2022-10-04T07:57:33.335Z,1.40
2022-10-04T08:00:11.759Z,1.50
2022-10-04T08:02:52.390Z,1.30
2022-10-04T08:05:24.468Z,1.80
2022-10-04T08:08:07.860Z,1.00
2022-10-04T08:10:44.175Z,1.20
2022-10-04T08:13:25.919Z,1.50
2022-10-04T08:16:01.153Z,1.40
2022-10-04T08:18:43.334Z,1.10
2022-10-04T08:21:17.315Z,1.20
2022-10-04T08:24:00.935Z,1.40
2022-10-04T08:26:52.813Z,1.10
2022-10-04T08:29:42.269Z,1.80
2022-10-04T08:32:22.890Z,2.10
2022-10-04T08:35:15.648Z,1.60
2022-10-04T08:38:00.943Z,1.50
2022-10-04T08:41:17.759Z,1.20
2022-10-04T08:44:18.428Z,1.30
2022-10-04T08:47:21.743Z,1.20
2022-10-04T08:50:25.201Z,1.40
2022-10-04T08:53:29.402Z,1.40
2022-10-04T08:56:09.519Z,1.60
2022-10-04T08:58:52.300Z,1.50
2022-10-04T09:01:45.072Z,1.20
2022-10-04T09:04:44.076Z,1.20
2022-10-04T09:07:38.795Z,1.50
2022-10-04T09:10:32.986Z,0.90
2022-10-04T09:13:21.586Z,1.00
2022-10-04T09:15:53.193Z,1.20
2022-10-04T09:18:30.987Z,1.30
2022-10-04T09:21:10.028Z,1.10
2022-10-04T09:24:03.921Z,1.10
2022-10-04T09:26:40.722Z,1.30
2022-10-04T09:29:35.201Z,1.30
2022-10-04T09:32:36.979Z,0.80
2022-10-04T09:35:32.751Z,1.40
2022-10-04T09:39:11.507Z,1.30
2022-10-04T09:41:59.633Z,1.00
2022-10-04T09:44:47.970Z,1.30
2022-10-04T09:47:37.306Z,1.00
2022-10-04T09:50:29.372Z,1.30
2022-10-04T09:53:08.287Z,1.30
2022-10-04T09:55:54.671Z,1.20
2022-10-04T09:58:52.641Z,1.20
2022-10-04T10:04:19.111Z,1.20
2022-10-04T10:07:14.333Z,1.20
2022-10-04T10:10:09.633Z,1.20
2022-10-04T10:13:31.785Z,1.40
2022-10-04T10:16:06.640Z,1.10
2022-10-04T10:18:49.945Z,0.90
2022-10-04T10:21:31.904Z,1.10
2022-10-04T10:24:19.101Z,1.10
2022-10-04T10:27:06.960Z,1.10
2022-10-04T10:30:03.503Z,0.70
2022-10-04T10:32:50.499Z,0.90
2022-10-04T10:35:45.343Z,1.50
2022-10-04T10:38:34.904Z,1.10
2022-10-04T10:41:39.039Z,0.90
2022-10-04T10:44:40.845Z,0.90
2022-10-04T10:47:28.891Z,1.00
2022-10-04T10:50:16.388Z,0.80
2022-10-04T10:53:30.579Z,1.10
2022-10-04T10:56:33.673Z,1.10
2022-10-04T10:59:37.286Z,0.90
2022-10-04T11:02:48.239Z,1.00
2022-10-04T11:05:49.226Z,0.90
2022-10-04T11:08:36.617Z,0.80
2022-10-04T11:14:12.207Z,1.10
2022-10-04T11:20:06.378Z,1.00
2022-10-04T11:23:24.330Z,1.00
2022-10-04T11:26:30.194Z,0.80
2022-10-04T11:29:09.453Z,0.50
2022-10-04T11:32:02.258Z,0.70
2022-10-04T11:35:12.004Z,1.00
2022-10-04T11:38:00.368Z,0.70
2022-10-04T11:40:44.339Z,0.90
2022-10-04T11:43:33.097Z,0.70
2022-10-04T11:46:17.680Z,1.10
2022-10-04T11:49:03.290Z,0.70
2022-10-04T11:51:56.559Z,0.80
2022-10-04T11:54:57.855Z,0.80
2022-10-04T11:57:33.410Z,0.90
2022-10-04T12:00:16.494Z,1.00
2022-10-04T12:03:22.604Z,0.90
2022-10-04T12:06:17.639Z,1.00
2022-10-04T12:08:56.406Z,1.40
2022-10-04T12:12:03.800Z,0.60
2022-10-04T12:14:42.333Z,1.40
2022-10-04T12:17:43.724Z,1.10
2022-10-04T12:20:31.671Z,0.90
2022-10-04T12:23:16.712Z,0.70
2022-10-04T12:26:09.824Z,0.90
2022-10-04T12:29:03.894Z,0.70
2022-10-04T12:31:35.432Z,0.70
2022-10-04T12:34:15.355Z,0.70
2022-10-04T12:37:03.617Z,0.90
2022-10-04T12:40:02.983Z,0.90
2022-10-04T12:42:42.852Z,0.70
2022-10-04T12:45:47.538Z,0.80
2022-10-04T12:48:32.755Z,0.70
2022-10-04T12:51:20.546Z,0.70
2022-10-04T12:53:56.630Z,0.80
2022-10-04T12:56:39.986Z,0.70
2022-10-04T12:59:21.354Z,0.80
2022-10-04T13:02:03.199Z,0.80
2022-10-04T13:04:39.284Z,0.80
2022-10-04T13:07:27.970Z,0.50
2022-10-04T13:10:24.113Z,0.80
2022-10-04T13:13:35.503Z,0.50
2022-10-04T13:19:09.997Z,0.70
2022-10-04T13:22:13.522Z,0.80
2022-10-04T13:24:55.678Z,0.80
2022-10-04T13:27:45.047Z,0.90
2022-10-04T13:30:23.515Z,0.80
2022-10-04T13:33:01.385Z,0.70
2022-10-04T13:35:36.904Z,0.90
2022-10-04T13:38:35.322Z,0.70
2022-10-04T13:41:17.632Z,0.80
2022-10-04T13:44:01.330Z,0.60
2022-10-04T13:46:38.571Z,0.70
2022-10-04T13:49:27.108Z,0.80
2022-10-04T13:52:38.888Z,0.60
2022-10-04T13:55:39.922Z,0.60
2022-10-04T13:58:25.641Z,0.60
2022-10-04T14:01:18.728Z,0.80
2022-10-04T14:03:58.095Z,0.80
2022-10-04T14:07:05.796Z,0.70
2022-10-04T14:09:55.500Z,0.70
2022-10-04T14:12:48.187Z,0.90
2022-10-04T14:15:38.800Z,0.80
2022-10-04T14:18:47.509Z,0.70
2022-10-04T14:21:45.325Z,1.00
2022-10-04T14:24:51.911Z,0.80
2022-10-04T14:27:42.785Z,0.70
2022-10-04T14:30:35.019Z,0.80
2022-10-04T14:33:30.154Z,0.60
2022-10-04T14:36:26.011Z,0.80
2022-10-04T14:39:23.654Z,0.80
2022-10-04T14:42:23.703Z,0.80
2022-10-04T14:45:13.494Z,0.80
2022-10-04T14:48:18.721Z,1.00
2022-10-04T14:51:02.599Z,1.00
2022-10-04T14:53:36.771Z,1.00
2022-10-04T14:56:34.724Z,0.70
2022-10-04T14:59:22.761Z,0.70
2022-10-04T15:02:18.729Z,1.10
2022-10-04T15:05:09.375Z,0.90
2022-10-04T15:07:42.350Z,0.70
2022-10-04T15:10:18.417Z,0.80
2022-10-04T15:13:16.073Z,0.90
2022-10-04T15:16:01.059Z,1.00
2022-10-04T15:18:38.671Z,0.90
2022-10-04T15:21:22.756Z,0.90
2022-10-04T15:23:54.887Z,1.00
2022-10-04T15:26:49.262Z,1.00
2022-10-04T15:29:25.872Z,0.70
2022-10-04T15:32:05.807Z,0.70
2022-10-04T15:34:45.005Z,1.00
2022-10-04T15:37:24.846Z,1.00
2022-10-04T15:40:15.889Z,1.00
2022-10-04T15:43:07.864Z,0.90
2022-10-04T15:46:03.545Z,0.90
2022-10-04T15:48:57.062Z,0.90
2022-10-04T15:51:44.370Z,0.90
2022-10-04T15:56:51.749Z,0.90
2022-10-04T15:59:46.511Z,1.00
2022-10-04T16:02:48.008Z,0.90
2022-10-04T16:05:22.902Z,1.00
2022-10-04T16:08:04.745Z,1.10
2022-10-04T16:10:52.507Z,1.20
2022-10-04T16:13:40.128Z,1.20
2022-10-04T16:16:40.561Z,1.00
2022-10-04T16:19:34.273Z,1.10
2022-10-04T16:22:17.545Z,1.00
2022-10-04T16:24:50.724Z,1.20
2022-10-04T16:27:42.556Z,1.10
2022-10-04T16:30:27.207Z,1.10
2022-10-04T16:33:25.358Z,1.40
2022-10-04T16:36:08.042Z,1.40
2022-10-04T16:39:06.166Z,1.20
2022-10-04T16:41:39.990Z,1.40
2022-10-04T16:44:28.146Z,1.20
2022-10-04T16:46:59.929Z,1.40
2022-10-04T16:49:40.892Z,1.30
2022-10-04T16:52:31.582Z,1.20
2022-10-04T16:55:23.949Z,1.20
2022-10-04T16:58:28.091Z,1.70
2022-10-04T17:01:42.719Z,1.50
2022-10-04T17:04:28.708Z,1.30
2022-10-04T17:06:58.700Z,1.40
2022-10-04T17:09:31.113Z,1.60
2022-10-04T17:12:13.005Z,1.60
2022-10-04T17:15:07.256Z,1.50
2022-10-04T17:17:45.389Z,1.20
2022-10-04T17:20:25.461Z,2.10
2022-10-04T17:23:05.939Z,2.00
2022-10-04T17:25:42.451Z,1.60
2022-10-04T17:28:25.553Z,2.00
2022-10-04T17:31:01.133Z,1.70
2022-10-04T17:33:42.896Z,2.00
2022-10-04T17:36:37.901Z,3.30
2022-10-04T17:39:39.053Z,2.20
2022-10-04T17:42:15.871Z,1.80
2022-10-04T17:44:59.834Z,2.10
2022-10-04T17:47:50.884Z,1.50
2022-10-04T17:50:43.951Z,2.60
2022-10-04T17:53:37.618Z,4.10
2022-10-04T17:56:08.668Z,3.60
2022-10-04T17:58:44.296Z,3.20
2022-10-04T18:01:18.730Z,3.10
2022-10-04T18:03:51.890Z,3.00
2022-10-04T18:06:31.969Z,3.50
2022-10-04T18:09:03.192Z,3.70
2022-10-04T18:11:43.060Z,3.70
2022-10-04T18:14:20.884Z,4.30
2022-10-04T18:16:52.938Z,3.90
2022-10-04T18:19:35.956Z,3.80
2022-10-04T18:22:11.996Z,4.10
2022-10-04T18:24:39.784Z,3.90
2022-10-04T18:27:18.371Z,3.20
2022-10-04T18:29:59.610Z,4.00
2022-10-04T18:32:36.131Z,3.50
2022-10-04T18:35:22.205Z,4.60
2022-10-04T18:37:51.434Z,4.10
2022-10-04T18:40:22.273Z,3.80
2022-10-04T18:42:56.490Z,4.00
2022-10-04T18:45:28.193Z,4.00
2022-10-04T18:47:58.674Z,4.50
2022-10-04T18:50:34.622Z,3.10
2022-10-04T18:53:17.336Z,3.40
2022-10-04T18:55:56.930Z,3.70
2022-10-04T18:59:11.036Z,3.90
2022-10-04T19:02:00.484Z,4.20
2022-10-04T19:04:45.125Z,3.40
2022-10-04T19:07:15.971Z,4.20
2022-10-04T19:10:11.047Z,4.40
2022-10-04T19:12:50.774Z,3.90
2022-10-04T19:15:33.657Z,3.40
2022-10-04T19:18:17.920Z,3.30
2022-10-04T19:20:51.603Z,3.20
2022-10-04T19:23:28.559Z,4.00
2022-10-04T19:26:30.568Z,4.00
2022-10-04T19:29:03.199Z,3.70
2022-10-04T19:31:40.560Z,3.40
2022-10-04T19:34:14.292Z,3.40
2022-10-04T19:36:50.857Z,4.90
2022-10-04T19:39:41.914Z,4.20
2022-10-04T19:42:14.492Z,3.50
2022-10-04T19:45:11.484Z,3.10
2022-10-04T19:47:48.217Z,3.30
2022-10-04T19:50:23.100Z,3.20
2022-10-04T19:52:53.556Z,4.10
2022-10-04T19:55:31.559Z,4.00
2022-10-04T19:58:07.624Z,4.80
2022-10-04T20:00:36.951Z,4.60
2022-10-04T20:03:11.404Z,3.70
2022-10-04T20:05:44.731Z,4.20
2022-10-04T20:08:13.871Z,3.80
2022-10-04T20:10:43.139Z,5.40
2022-10-04T20:13:24.327Z,4.70
2022-10-04T20:15:53.936Z,4.00
2022-10-04T20:18:59.830Z,4.80
2022-10-04T20:21:31.397Z,4.60
2022-10-04T20:24:00.900Z,5.00
2022-10-04T20:26:53.749Z,4.90
2022-10-04T20:30:10.069Z,6.60
2022-10-04T20:33:01.870Z,7.10
2022-10-04T20:36:10.449Z,7.30
2022-10-04T20:38:46.574Z,6.50
2022-10-04T20:42:04.919Z,6.50
2022-10-04T20:44:43.851Z,6.70
2022-10-04T20:47:21.866Z,6.30
2022-10-04T20:49:49.717Z,6.20
2022-10-04T20:52:18.782Z,5.90
2022-10-04T20:54:52.428Z,6.10
2022-10-04T20:57:23.132Z,6.30
2022-10-04T20:59:53.884Z,7.70
2022-10-04T21:02:23.245Z,6.30
2022-10-04T21:04:53.004Z,7.00
2022-10-04T21:07:23.427Z,8.20
2022-10-04T21:09:52.894Z,6.80
2022-10-04T21:12:30.913Z,7.30
2022-10-04T21:15:20.182Z,7.30
2022-10-04T21:18:02.010Z,7.70
2022-10-04T21:20:46.728Z,8.80
2022-10-04T21:23:22.721Z,10.00
2022-10-04T21:25:50.361Z,10.10
2022-10-04T21:28:33.174Z,7.90
2022-10-04T21:31:02.556Z,9.30
2022-10-04T21:33:32.921Z,7.00
2022-10-04T21:36:00.499Z,7.30
2022-10-04T21:38:28.533Z,8.00
2022-10-04T21:40:56.284Z,8.50
2022-10-04T21:43:25.057Z,7.70
2022-10-04T21:45:52.795Z,7.80
2022-10-04T21:48:22.540Z,8.00
2022-10-04T21:50:52.011Z,8.60
2022-10-04T21:53:20.011Z,8.60
2022-10-04T21:55:47.569Z,8.50
2022-10-04T21:58:15.089Z,8.10
2022-10-04T22:00:42.693Z,8.40
2022-10-04T22:03:10.252Z,7.00
2022-10-04T22:05:37.746Z,7.50
2022-10-04T22:08:05.430Z,7.10
2022-10-04T22:10:33.210Z,6.70
2022-10-04T22:13:00.728Z,6.90
2022-10-04T22:15:28.751Z,7.70
2022-10-04T22:17:56.421Z,7.40
2022-10-04T22:20:25.504Z,8.90
2022-10-04T22:22:54.936Z,10.60
2022-10-04T22:25:25.047Z,9.90
2022-10-04T22:27:53.286Z,7.90
2022-10-04T22:30:24.492Z,8.40
2022-10-04T22:32:55.264Z,7.30
2022-10-04T22:35:23.099Z,7.50
2022-10-04T22:37:50.910Z,7.20
2022-10-04T22:40:20.533Z,7.60
2022-10-04T22:42:51.764Z,7.40
2022-10-04T22:45:22.635Z,7.80
2022-10-04T22:47:51.187Z,8.70
2022-10-04T22:50:26.972Z,7.60
2022-10-04T22:52:57.237Z,7.50
2022-10-04T22:55:25.414Z,7.10
2022-10-04T22:57:53.017Z,7.90
2022-10-04T23:00:20.509Z,7.60
2022-10-04T23:02:48.583Z,7.20
2022-10-04T23:05:19.084Z,7.10
2022-10-04T23:07:48.157Z,8.20
2022-10-04T23:10:19.202Z,7.20
2022-10-04T23:12:48.379Z,7.70
2022-10-04T23:15:18.947Z,8.10
2022-10-04T23:17:53.186Z,9.30
2022-10-04T23:20:21.555Z,8.40
2022-10-04T23:22:50.906Z,7.30
2022-10-04T23:25:20.095Z,7.70
2022-10-04T23:27:48.291Z,7.40
2022-10-04T23:30:18.911Z,7.10
2022-10-04T23:32:49.830Z,6.80
2022-10-04T23:35:19.963Z,7.20
2022-10-04T23:37:48.246Z,6.90
2022-10-04T23:40:18.352Z,7.40
2022-10-04T23:42:48.026Z,6.80
2022-10-04T23:45:19.730Z,7.00
2022-10-04T23:47:49.323Z,6.80
2022-10-04T23:50:22.523Z,7.70
2022-10-04T23:52:54.693Z,7.10
2022-10-04T23:55:24.112Z,7.30
2022-10-04T23:57:51.768Z,7.00
